Hlavní strana
METAR-TAF:

METAR-TAF

Letiště :

Nouméa / La Tontouta, Nová Kaledonie

zeměpisná šířka: 22-01S, zeměpisná délka: 166-13E, výška: 16 m

Aktuální stav počasí

Zpráva byla vytvořena před 19 minutami, v 22:30 UTC
Východojihovýchodní vítr 5 kt, proměnlivý mezi východoseverovýchodním a jižním
Teplota 28°C
Vlhkost vzduchu 48%
Tlak 1012 hPa
Viditelnost 10 km a více
Žádná oblačnost pod 1500 m, nevyskytují se cumulonimby.

METAR: NWWW 152230Z AUTO 12005KT 070V180 CAVOK 28/16 Q1012 BECMG 14016KT

Čas: 09:49 (22:49 UTC)

Předpověď počasí

Zpráva byla vytvořena před 5 hodinami a 49 minutami, v 17:00 UTC
Předpověď platná od 15 v 18 UTC do 16 v 18 UTC
vítr z různých směrů 2 kt
Viditelnost 10 km a více
Skoro jasno ve výšce 4500 ft
Změna
od 15 v 22 UTC do 15 v 24 UTC
Jihovýchodní vítr 16 kt
Změna
od 16 v 08 UTC do 16 v 10 UTC
Východní vítr 8 kt

TAF: NWWW 151700Z 1518/1618 VRB02KT 9999 FEW045 BECMG 1522/1524 14016KT BECMG 1608/1610 10008KT

Stav a předpovědi počasí z více než 4 000 letišť (zprávy METAR a TAF).

Červené a žluté tečky na mapě představují dostupné meteorologické stanice.

Když kurzor umístíte na tečku, zobrazí se název stanice.

Pak kliknutím zobrazíte stav a předpověď počasí.

Chcete-li změnit mapu, kliknutím na zelené tlačítko se znaménkem +mapu přiblížíte, kliknutím na zelené tlačítko se znaménkem – mapu oddálíte a kliknutím na zelené šipky přejdete na sousední mapy.


METAR-TAF: